Time;durP1;ratioP1;P1;durP2;ratioP2;P2;SDS_P1;SDS_P2;PMS_P1;PMS_P2;Temp;Humidity;BMP_temperature;BMP_pressure;BME280_temperature;BME280_humidity;BME280_pressure;Samples;Min_cycle;Max_cycle;Signal;HPM_P1;HPM_P2
2021/05/30 00:01:20;;;;;;;32.30;14.73;;;10.30;97.30;;;;;;5016082;28;20172;-88
2021/05/30 00:03:47;;;;;;;29.30;14.60;;;10.20;97.30;;;;;;5033135;28;20501;-88
2021/05/30 00:06:13;;;;;;;30.73;14.07;;;10.20;97.30;;;;;;5033235;28;20686;-88
2021/05/30 00:08:38;;;;;;;26.50;14.50;;;10.20;97.30;;;;;;5015185;28;20419;-88
2021/05/30 00:11:04;;;;;;;29.20;14.40;;;10.10;97.30;;;;;;5015413;28;20181;-88
2021/05/30 00:13:30;;;;;;;27.27;13.40;;;10.10;97.30;;;;;;5014906;28;20757;-88
2021/05/30 00:15:55;;;;;;;31.70;14.70;;;10.10;97.30;;;;;;5015064;28;20176;-88
2021/05/30 00:18:21;;;;;;;37.17;15.20;;;10.00;97.30;;;;;;5014891;28;20247;-88
2021/05/30 00:20:46;;;;;;;36.00;15.53;;;10.00;97.30;;;;;;5014766;28;20234;-87
2021/05/30 00:23:12;;;;;;;24.33;13.30;;;10.00;97.30;;;;;;5014586;28;20196;-88
2021/05/30 00:25:37;;;;;;;27.00;14.17;;;10.00;97.30;;;;;;5014739;28;20199;-87
2021/05/30 00:28:03;;;;;;;28.03;14.40;;;9.90;97.30;;;;;;5032490;28;20181;-88
2021/05/30 00:30:29;;;;;;;26.80;14.00;;;9.90;97.30;;;;;;5015386;28;20200;-87
2021/05/30 00:32:54;;;;;;;31.40;14.37;;;9.90;97.30;;;;;;5015276;28;20193;-87
2021/05/30 00:35:20;;;;;;;26.63;14.03;;;9.90;97.30;;;;;;5015793;28;20191;-88
2021/05/30 00:37:46;;;;;;;29.00;14.30;;;9.90;97.30;;;;;;5015639;28;20196;-86
2021/05/30 00:40:11;;;;;;;28.77;15.27;;;9.80;97.30;;;;;;5016813;28;20172;-88
2021/05/30 00:42:37;;;;;;;28.43;14.93;;;9.80;97.30;;;;;;5019280;28;20192;-87
2021/05/30 00:45:04;;;;;;;26.47;14.67;;;9.80;97.30;;;;;;5037146;28;20179;-87
2021/05/30 00:47:30;;;;;;;34.80;14.80;;;9.80;97.30;;;;;;5018825;28;20290;-86
2021/05/30 00:49:55;;;;;;;29.00;15.00;;;9.80;97.30;;;;;;5019237;28;20458;-87
2021/05/30 00:52:21;;;;;;;29.50;14.37;;;9.70;97.30;;;;;;5019391;28;20334;-87
2021/05/30 00:54:47;;;;;;;29.10;14.80;;;9.70;97.30;;;;;;5019857;28;20203;-87
2021/05/30 00:57:12;;;;;;;38.47;14.23;;;9.70;97.30;;;;;;5037924;28;20259;-88
2021/05/30 00:59:38;;;;;;;29.20;14.93;;;9.70;97.30;;;;;;5020243;28;20180;-88
2021/05/30 01:02:04;;;;;;;37.20;14.80;;;9.70;97.30;;;;;;5020326;28;20208;-88
2021/05/30 01:04:30;;;;;;;33.10;15.00;;;9.70;97.30;;;;;;5020168;28;20187;-87
2021/05/30 01:06:57;;;;;;;39.53;16.27;;;9.60;97.30;;;;;;5020305;28;20426;-88
2021/05/30 01:09:25;;;;;;;28.00;14.30;;;9.60;97.30;;;;;;5020283;28;20427;-88
2021/05/30 01:11:51;;;;;;;32.53;15.10;;;9.60;97.30;;;;;;5020336;28;20450;-87
2021/05/30 01:14:17;;;;;;;28.93;14.70;;;9.60;97.30;;;;;;5020021;28;20476;-87
2021/05/30 01:16:43;;;;;;;30.00;15.70;;;9.60;97.30;;;;;;5019362;28;20965;-88
2021/05/30 01:19:13;;;;;;;28.60;14.10;;;9.50;97.30;;;;;;5019149;28;20184;-87
2021/05/30 01:21:41;;;;;;;28.97;13.83;;;9.50;97.30;;;;;;5018194;28;20193;-88
2021/05/30 01:24:07;;;;;;;28.90;14.70;;;9.50;97.30;;;;;;5018032;28;20477;-88
2021/05/30 01:26:33;;;;;;;29.23;15.03;;;9.50;97.30;;;;;;5018422;28;20412;-87
2021/05/30 01:28:58;;;;;;;31.43;14.20;;;9.50;97.30;;;;;;5018426;28;20270;-88
2021/05/30 01:31:24;;;;;;;28.00;14.83;;;9.40;97.30;;;;;;5035326;28;20589;-87
2021/05/30 01:33:49;;;;;;;29.90;14.90;;;9.40;97.30;;;;;;5017909;28;20173;-87
2021/05/30 01:36:15;;;;;;;33.80;14.50;;;9.40;97.30;;;;;;5017950;28;20618;-87
2021/05/30 01:38:41;;;;;;;29.63;14.60;;;9.40;97.30;;;;;;5018117;28;20175;-87
2021/05/30 01:41:06;;;;;;;30.47;13.60;;;9.40;97.30;;;;;;5017818;28;20180;-88
2021/05/30 01:43:32;;;;;;;29.83;13.63;;;9.40;97.30;;;;;;5017546;28;20969;-89
2021/05/30 01:45:59;;;;;;;27.93;13.70;;;9.30;97.30;;;;;;5035609;28;20180;-87
2021/05/30 01:48:25;;;;;;;28.93;15.10;;;9.30;97.30;;;;;;5017681;28;20240;-88
2021/05/30 01:50:51;;;;;;;32.97;16.67;;;9.20;97.30;;;;;;5017429;28;20562;-87
2021/05/30 01:53:18;;;;;;;28.33;15.10;;;9.20;97.30;;;;;;5000314;28;20618;-87
2021/05/30 01:58:14;;;;;;;30.90;14.93;;;9.10;97.30;;;;;;5015716;28;20455;-88
2021/05/30 02:00:39;;;;;;;27.40;14.00;;;9.10;97.30;;;;;;4998389;28;20451;-87
2021/05/30 02:03:07;;;;;;;28.23;15.00;;;9.10;97.30;;;;;;4998928;28;20440;-88
2021/05/30 02:05:33;;;;;;;29.63;15.70;;;9.00;97.30;;;;;;5016023;28;20257;-87
2021/05/30 02:07:59;;;;;;;29.73;14.20;;;9.00;97.30;;;;;;5015927;28;20439;-87
2021/05/30 02:10:25;;;;;;;29.40;14.33;;;9.00;97.30;;;;;;5015577;28;20408;-87
2021/05/30 02:12:53;;;;;;;35.60;15.60;;;9.00;97.30;;;;;;4998330;28;20436;-87
2021/05/30 02:15:20;;;;;;;32.97;15.17;;;9.00;97.30;;;;;;4998653;28;20177;-87
2021/05/30 02:17:46;;;;;;;31.20;15.83;;;9.00;97.30;;;;;;4998685;28;20451;-87
2021/05/30 02:20:13;;;;;;;28.93;15.73;;;8.90;97.30;;;;;;4998779;28;20851;-87
2021/05/30 02:22:39;;;;;;;32.73;15.13;;;8.90;97.30;;;;;;4999072;28;20828;-87
2021/05/30 02:25:06;;;;;;;29.27;15.33;;;8.90;97.30;;;;;;4999660;28;20507;-87
2021/05/30 02:27:32;;;;;;;33.43;15.40;;;8.90;97.30;;;;;;4999281;28;20416;-88
2021/05/30 02:29:57;;;;;;;33.80;14.70;;;8.90;97.30;;;;;;4999385;28;20443;-87
2021/05/30 02:32:23;;;;;;;31.50;16.80;;;8.90;97.30;;;;;;5016985;28;20197;-87
2021/05/30 02:34:48;;;;;;;35.00;16.20;;;8.80;97.30;;;;;;5016937;28;20211;-87
2021/05/30 02:37:16;;;;;;;30.23;16.80;;;8.80;97.30;;;;;;4999318;28;20229;-87
2021/05/30 02:39:43;;;;;;;34.83;16.77;;;8.80;97.30;;;;;;4999209;28;20260;-87
2021/05/30 02:42:09;;;;;;;33.20;16.30;;;8.80;97.30;;;;;;4998764;28;20972;-87
2021/05/30 02:44:35;;;;;;;31.00;14.27;;;8.80;97.30;;;;;;4999336;28;20515;-88
2021/05/30 02:47:01;;;;;;;36.13;16.50;;;8.80;97.30;;;;;;4999779;28;20471;-88
2021/05/30 02:49:27;;;;;;;36.07;15.37;;;8.80;97.30;;;;;;5003360;28;20420;-88
2021/05/30 02:51:52;;;;;;;32.73;15.90;;;8.80;97.30;;;;;;5022933;28;20238;-87
2021/05/30 02:54:18;;;;;;;39.43;15.50;;;8.80;97.30;;;;;;5031521;28;20655;-87
2021/05/30 02:56:44;;;;;;;36.33;15.27;;;8.80;97.30;;;;;;5017043;28;20200;-88
2021/05/30 02:59:10;;;;;;;33.50;16.47;;;8.80;97.30;;;;;;5017742;28;20185;-87
2021/05/30 03:01:36;;;;;;;34.77;16.03;;;8.70;97.30;;;;;;5016988;28;20203;-88
2021/05/30 03:04:02;;;;;;;39.33;16.23;;;8.70;97.30;;;;;;5016442;28;20415;-87
2021/05/30 03:06:32;;;;;;;28.47;14.63;;;8.70;97.30;;;;;;5017541;28;20941;-88
2021/05/30 03:08:59;;;;;;;32.73;16.20;;;8.70;97.30;;;;;;5017861;28;20389;-87
2021/05/30 03:11:25;;;;;;;31.33;15.60;;;8.70;97.30;;;;;;5017366;28;20450;-87
2021/05/30 03:13:51;;;;;;;28.87;15.13;;;8.70;97.30;;;;;;5017886;28;20415;-87
2021/05/30 03:16:18;;;;;;;37.50;17.03;;;8.70;97.30;;;;;;5017498;28;20453;-87
2021/05/30 03:18:44;;;;;;;33.43;15.90;;;8.70;97.30;;;;;;5016622;28;20419;-87
2021/05/30 03:21:10;;;;;;;33.70;17.50;;;8.60;97.30;;;;;;5015999;28;20419;-88
2021/05/30 03:23:37;;;;;;;33.77;17.00;;;8.60;97.30;;;;;;5008097;28;20415;-88
2021/05/30 03:26:03;;;;;;;36.10;16.17;;;8.60;97.30;;;;;;5016312;28;20420;-87
2021/05/30 03:28:28;;;;;;;36.67;16.93;;;8.60;97.30;;;;;;5016898;28;20420;-88
2021/05/30 03:30:54;;;;;;;37.47;17.10;;;8.60;97.30;;;;;;5016358;28;20534;-88
2021/05/30 03:33:20;;;;;;;33.93;15.70;;;8.60;97.30;;;;;;5025246;23;20733;-87
2021/05/30 03:35:46;;;;;;;47.27;20.00;;;8.60;97.30;;;;;;4995835;28;20862;-87
2021/05/30 03:38:14;;;;;;;38.67;18.37;;;8.60;97.30;;;;;;4995821;28;20571;-87
2021/05/30 03:40:48;;;;;;;38.93;17.70;;;8.70;97.30;;;;;;4995950;28;20177;-87
2021/05/30 03:43:14;;;;;;;34.93;17.20;;;8.70;97.30;;;;;;5047846;23;20502;-87
2021/05/30 03:45:40;;;;;;;34.03;17.43;;;8.70;97.30;;;;;;5032930;28;20458;-87
2021/05/30 03:48:06;;;;;;;37.67;16.90;;;8.70;97.30;;;;;;5032983;28;20399;-87
2021/05/30 03:50:33;;;;;;;42.77;18.17;;;8.70;97.30;;;;;;5020406;28;20617;-86
2021/05/30 03:52:58;;;;;;;35.97;17.03;;;8.80;97.30;;;;;;5035528;28;20438;-87
2021/05/30 03:55:24;;;;;;;36.80;17.20;;;8.80;97.30;;;;;;5035785;28;20959;-87
2021/05/30 03:57:50;;;;;;;43.40;18.73;;;8.80;97.30;;;;;;5035994;28;20203;-87
2021/05/30 04:00:18;;;;;;;34.07;17.10;;;8.80;97.30;;;;;;5036160;28;20184;-88
2021/05/30 04:02:45;;;;;;;35.03;16.70;;;8.80;97.30;;;;;;5035992;28;20268;-88
2021/05/30 04:05:12;;;;;;;40.30;16.17;;;8.80;97.30;;;;;;5036140;28;20643;-87
2021/05/30 04:07:37;;;;;;;31.10;16.40;;;8.90;97.30;;;;;;5036554;28;20430;-87
2021/05/30 04:10:09;;;;;;;34.47;15.77;;;8.90;97.30;;;;;;5036416;28;20411;-88
2021/05/30 04:12:42;;;;;;;35.43;17.33;;;8.90;97.30;;;;;;5036095;28;20207;-87
2021/05/30 04:15:10;;;;;;;41.50;17.63;;;8.90;97.30;;;;;;5039021;28;20509;-86
2021/05/30 04:17:35;;;;;;;37.23;16.80;;;9.00;97.30;;;;;;5039766;28;20512;-87
2021/05/30 04:20:01;;;;;;;33.67;17.03;;;9.00;97.30;;;;;;5038928;28;20418;-87
2021/05/30 04:22:27;;;;;;;37.00;17.50;;;9.00;97.30;;;;;;5039032;28;20249;-87
2021/05/30 04:24:52;;;;;;;31.30;16.30;;;9.10;97.30;;;;;;5055861;28;20172;-87
2021/05/30 04:27:18;;;;;;;38.10;18.17;;;9.10;97.30;;;;;;5037982;28;20183;-87
2021/05/30 04:29:44;;;;;;;30.77;15.73;;;9.10;97.30;;;;;;5037888;28;20241;-88
2021/05/30 04:32:09;;;;;;;29.80;16.40;;;9.20;97.30;;;;;;5037830;28;20200;-87
2021/05/30 04:34:35;;;;;;;33.63;16.30;;;9.20;97.30;;;;;;5037832;28;20424;-87
2021/05/30 04:37:00;;;;;;;36.40;17.37;;;9.20;97.30;;;;;;5055735;28;20204;-87
2021/05/30 04:39:27;;;;;;;32.17;16.17;;;9.30;97.30;;;;;;5037736;28;20176;-87
2021/05/30 04:41:53;;;;;;;34.60;15.67;;;9.30;97.30;;;;;;5037603;28;20217;-87
2021/05/30 04:44:19;;;;;;;32.37;16.10;;;9.30;97.30;;;;;;5037571;28;20406;-87
2021/05/30 04:46:44;;;;;;;34.57;17.00;;;9.40;97.30;;;;;;5037401;28;20249;-87
2021/05/30 04:49:10;;;;;;;35.77;16.63;;;9.40;97.30;;;;;;5029059;28;20180;-86
2021/05/30 04:51:35;;;;;;;36.03;15.40;;;9.40;97.30;;;;;;5017466;28;20642;-85
2021/05/30 04:54:01;;;;;;;34.23;17.13;;;9.50;97.30;;;;;;5017404;28;20187;-86
2021/05/30 04:56:26;;;;;;;31.53;15.60;;;9.50;97.30;;;;;;5019480;28;20176;-87
2021/05/30 04:58:52;;;;;;;29.87;14.53;;;9.50;97.30;;;;;;5017765;28;20263;-86
2021/05/30 05:01:18;;;;;;;33.90;15.80;;;9.50;97.30;;;;;;5016491;28;20180;-88
2021/05/30 05:03:43;;;;;;;29.50;15.53;;;9.60;97.30;;;;;;5020110;28;20862;-87
2021/05/30 05:06:10;;;;;;;27.67;13.93;;;9.60;97.30;;;;;;5018094;28;20169;-88
2021/05/30 05:08:53;;;;;;;32.83;14.23;;;9.60;97.30;;;;;;5035172;28;20211;-88
2021/05/30 05:11:19;;;;;;;33.27;14.23;;;9.70;97.30;;;;;;5051949;28;20421;-88
2021/05/30 05:13:44;;;;;;;31.83;14.90;;;9.70;97.30;;;;;;5019924;28;20494;-89
2021/05/30 05:16:10;;;;;;;28.30;14.17;;;9.80;97.30;;;;;;5041019;28;20195;-88
2021/05/30 05:18:44;;;;;;;34.60;16.53;;;9.80;97.30;;;;;;5027461;28;20197;-89
2021/05/30 05:21:14;;;;;;;28.97;15.17;;;9.90;97.30;;;;;;5023653;28;20203;-91
2021/05/30 05:23:40;;;;;;;24.60;13.53;;;9.90;97.30;;;;;;5032727;28;20446;-89
2021/05/30 05:26:05;;;;;;;27.80;14.10;;;10.00;97.30;;;;;;5037883;28;20928;-88
2021/05/30 05:28:35;;;;;;;25.67;13.43;;;10.00;97.30;;;;;;5019679;28;20552;-90
2021/05/30 05:31:25;;;;;;;26.00;12.50;;;10.10;97.30;;;;;;4992468;28;20444;-88
2021/05/30 05:33:50;;;;;;;29.07;14.93;;;10.10;97.30;;;;;;5035011;23;21230;-78
2021/05/30 05:36:17;;;;;;;26.73;13.67;;;10.10;97.30;;;;;;5040393;28;20413;-81
2021/05/30 05:38:43;;;;;;;26.83;13.07;;;10.20;97.30;;;;;;5040748;28;20207;-80
2021/05/30 05:41:12;;;;;;;29.83;13.10;;;10.30;97.30;;;;;;5056088;28;20447;-80
2021/05/30 05:43:38;;;;;;;25.17;13.30;;;10.30;97.30;;;;;;5037718;28;20941;-80
2021/05/30 05:46:04;;;;;;;24.30;13.63;;;10.40;97.30;;;;;;5021835;28;20412;-81
2021/05/30 05:48:39;;;;;;;28.30;14.40;;;10.40;97.30;;;;;;5020394;28;20176;-81
2021/05/30 05:51:05;;;;;;;22.93;12.23;;;10.50;97.30;;;;;;5037581;28;20960;-80
2021/05/30 05:53:32;;;;;;;23.10;12.20;;;10.60;97.30;;;;;;5019964;28;20419;-80
2021/05/30 05:55:58;;;;;;;24.17;12.40;;;10.70;97.30;;;;;;5019446;28;20233;-80
2021/05/30 05:58:24;;;;;;;25.33;12.97;;;10.80;97.30;;;;;;5019285;28;20455;-79
2021/05/30 06:00:49;;;;;;;22.63;11.30;;;10.80;97.30;;;;;;5019598;28;20227;-80
2021/05/30 06:03:16;;;;;;;19.50;10.70;;;10.90;97.30;;;;;;5025516;28;20905;-80
2021/05/30 06:05:41;;;;;;;20.57;11.23;;;11.00;97.30;;;;;;5017979;28;20180;-79
2021/05/30 06:08:07;;;;;;;18.63;11.23;;;11.00;97.30;;;;;;5035748;28;20420;-79
2021/05/30 06:10:33;;;;;;;16.57;10.07;;;11.10;97.30;;;;;;5017249;28;20303;-80
2021/05/30 06:13:02;;;;;;;20.97;10.27;;;11.20;97.30;;;;;;5015227;28;20188;-80
2021/05/30 06:15:29;;;;;;;18.27;10.37;;;11.30;97.30;;;;;;5017958;28;20415;-80
2021/05/30 06:18:07;;;;;;;17.17;9.40;;;11.40;97.30;;;;;;5017473;28;20509;-80
2021/05/30 06:20:33;;;;;;;17.63;8.67;;;11.40;97.30;;;;;;5032746;28;20430;-80
2021/05/30 06:23:00;;;;;;;16.07;8.80;;;11.50;97.30;;;;;;5019074;28;20421;-80
2021/05/30 06:25:27;;;;;;;17.07;9.07;;;11.50;97.30;;;;;;5020074;28;20427;-80
2021/05/30 06:27:55;;;;;;;17.87;9.07;;;11.60;97.30;;;;;;5017601;28;20486;-79
2021/05/30 06:30:22;;;;;;;15.30;7.50;;;11.70;97.30;;;;;;5033292;28;20434;-80
2021/05/30 06:32:49;;;;;;;14.27;7.10;;;11.80;97.30;;;;;;5013843;28;20451;-80
2021/05/30 06:35:14;;;;;;;14.80;8.10;;;11.90;97.30;;;;;;5006796;28;20456;-83
2021/05/30 06:37:40;;;;;;;12.93;7.20;;;12.00;97.30;;;;;;4997255;28;20484;-80
2021/05/30 06:40:06;;;;;;;12.80;6.77;;;12.00;97.30;;;;;;4999341;28;20227;-80
2021/05/30 06:42:32;;;;;;;12.80;5.67;;;12.10;97.30;;;;;;5000478;28;20193;-79
2021/05/30 06:44:57;;;;;;;12.27;6.10;;;12.10;97.30;;;;;;5009900;28;20514;-80
2021/05/30 06:47:23;;;;;;;12.53;6.10;;;12.10;97.30;;;;;;5010885;28;20579;-81
2021/05/30 06:49:49;;;;;;;9.47;6.00;;;12.20;97.30;;;;;;5036386;28;20179;-80
2021/05/30 06:52:14;;;;;;;8.20;5.40;;;12.20;97.30;;;;;;5003190;28;20201;-80
2021/05/30 06:54:40;;;;;;;10.53;6.00;;;12.30;97.30;;;;;;5012030;28;20192;-80
2021/05/30 06:57:06;;;;;;;8.07;5.50;;;12.40;97.30;;;;;;5016024;28;20200;-81
2021/05/30 06:59:32;;;;;;;10.70;5.03;;;12.50;97.30;;;;;;5036939;28;20188;-79
2021/05/30 07:01:57;;;;;;;11.30;5.10;;;12.50;97.30;;;;;;5010645;28;20447;-80
2021/05/30 07:04:26;;;;;;;10.77;4.93;;;12.60;97.30;;;;;;5019608;28;20173;-82
2021/05/30 07:06:51;;;;;;;6.40;4.47;;;12.70;97.10;;;;;;5010264;28;20259;-81
2021/05/30 07:09:17;;;;;;;10.13;3.80;;;12.80;94.50;;;;;;5011554;28;20835;-79
2021/05/30 07:11:42;;;;;;;9.13;3.60;;;12.80;93.80;;;;;;5034881;28;20569;-81
2021/05/30 07:14:08;;;;;;;8.10;3.50;;;12.90;93.90;;;;;;5011768;28;20185;-79
2021/05/30 07:16:34;;;;;;;6.37;3.80;;;13.00;91.90;;;;;;5009253;28;20666;-81
2021/05/30 07:18:59;;;;;;;10.43;4.73;;;13.10;92.40;;;;;;5036467;28;20176;-80
2021/05/30 07:21:25;;;;;;;4.97;3.80;;;13.10;91.20;;;;;;5010043;28;20193;-79
2021/05/30 07:23:50;;;;;;;10.40;4.00;;;13.10;91.50;;;;;;5015611;28;20641;-80
2021/05/30 07:26:20;;;;;;;5.03;3.40;;;13.10;92.10;;;;;;5026113;28;20239;-81
2021/05/30 07:28:47;;;;;;;4.03;3.33;;;13.20;91.60;;;;;;4997850;28;20272;-80
2021/05/30 07:31:13;;;;;;;6.53;3.80;;;13.20;90.40;;;;;;5012800;28;20498;-79
2021/05/30 07:33:39;;;;;;;5.83;3.97;;;13.30;90.60;;;;;;5008679;28;20479;-80
2021/05/30 07:36:06;;;;;;;7.70;3.93;;;13.30;90.80;;;;;;5021303;28;20493;-80
2021/05/30 07:38:35;;;;;;;10.27;4.00;;;13.40;91.50;;;;;;5022815;28;20823;-81
2021/05/30 07:41:01;;;;;;;11.33;4.00;;;13.50;92.10;;;;;;5016844;28;20489;-80
2021/05/30 07:43:27;;;;;;;8.87;4.57;;;13.70;92.10;;;;;;5016661;28;20494;-80
2021/05/30 07:45:53;;;;;;;8.00;4.70;;;13.80;90.70;;;;;;5033468;28;20897;-80
2021/05/30 07:48:19;;;;;;;8.30;3.70;;;13.80;90.00;;;;;;5046570;28;20195;-80
2021/05/30 07:50:45;;;;;;;4.93;3.40;;;13.90;89.80;;;;;;5025922;28;20447;-80
2021/05/30 07:53:11;;;;;;;3.50;2.60;;;14.00;89.40;;;;;;5035781;28;20780;-78
2021/05/30 07:55:37;;;;;;;5.40;3.00;;;14.00;89.30;;;;;;5029230;28;20430;-78
2021/05/30 07:58:03;;;;;;;5.00;3.60;;;14.10;88.60;;;;;;5020598;28;20204;-80
2021/05/30 08:00:28;;;;;;;7.33;3.23;;;14.10;88.20;;;;;;5016009;28;20767;-80
2021/05/30 08:02:54;;;;;;;8.63;3.90;;;14.20;88.10;;;;;;5035451;28;20270;-79
2021/05/30 08:05:21;;;;;;;6.30;3.40;;;14.40;87.80;;;;;;5048147;28;20179;-80
2021/05/30 08:07:49;;;;;;;6.37;3.83;;;14.40;87.60;;;;;;5034604;28;20651;-79
2021/05/30 08:10:18;;;;;;;10.90;4.17;;;14.50;86.90;;;;;;5031129;28;20485;-80
2021/05/30 08:12:44;;;;;;;4.10;3.50;;;14.60;87.40;;;;;;5022360;28;21065;-79
2021/05/30 08:15:10;;;;;;;7.80;3.97;;;14.60;87.20;;;;;;5017819;28;20515;-80
2021/05/30 08:17:36;;;;;;;5.17;3.63;;;14.70;87.60;;;;;;5014293;28;20232;-80
2021/05/30 08:20:06;;;;;;;5.60;3.70;;;14.80;87.20;;;;;;5017847;28;20932;-79
2021/05/30 08:22:32;;;;;;;6.13;3.60;;;14.80;87.60;;;;;;5023029;28;20455;-80
2021/05/30 08:24:58;;;;;;;7.33;3.40;;;14.90;86.20;;;;;;5018986;28;20493;-80
2021/05/30 08:27:24;;;;;;;9.07;3.70;;;15.10;84.90;;;;;;5025242;28;20949;-78
2021/05/30 08:29:49;;;;;;;10.07;3.60;;;15.20;85.50;;;;;;5023059;28;20184;-80
2021/05/30 08:32:15;;;;;;;5.63;3.30;;;15.20;84.70;;;;;;5020958;28;20223;-80
2021/05/30 08:34:41;;;;;;;6.57;3.63;;;15.20;84.60;;;;;;5045752;28;20180;-80
2021/05/30 08:37:06;;;;;;;6.50;3.07;;;15.20;83.80;;;;;;5023854;28;20486;-79
2021/05/30 08:39:32;;;;;;;8.13;3.47;;;15.20;84.40;;;;;;5030269;28;20236;-79
2021/05/30 08:41:58;;;;;;;5.87;3.40;;;15.30;84.40;;;;;;5021365;28;20188;-79
2021/05/30 08:44:24;;;;;;;6.07;3.90;;;15.30;84.90;;;;;;5038785;28;20939;-80
2021/05/30 08:46:50;;;;;;;6.97;4.13;;;15.40;84.80;;;;;;5018905;28;20168;-79
2021/05/30 08:49:16;;;;;;;9.50;3.73;;;15.50;85.00;;;;;;5042963;28;20235;-79
2021/05/30 08:51:42;;;;;;;5.23;3.33;;;15.50;84.00;;;;;;5025767;28;20666;-77
2021/05/30 08:54:13;;;;;;;4.87;2.90;;;15.60;84.20;;;;;;5026813;28;20184;-79
2021/05/30 08:56:42;;;;;;;5.93;2.93;;;15.70;85.10;;;;;;5025530;28;20416;-79
2021/05/30 08:59:15;;;;;;;10.10;3.30;;;15.80;83.40;;;;;;5019975;28;20506;-77
2021/05/30 09:01:45;;;;;;;6.57;3.73;;;15.80;83.70;;;;;;5020101;28;20457;-78
2021/05/30 09:04:11;;;;;;;7.40;3.60;;;15.90;83.40;;;;;;5038624;28;20489;-77
2021/05/30 09:06:46;;;;;;;6.20;3.40;;;15.90;84.00;;;;;;5034682;28;20430;-79
2021/05/30 09:09:13;;;;;;;5.20;3.03;;;15.90;82.80;;;;;;5026242;28;20486;-79
2021/05/30 09:11:41;;;;;;;8.53;3.83;;;16.00;83.50;;;;;;5019679;28;20819;-79
2021/05/30 09:14:13;;;;;;;7.70;3.97;;;16.00;82.30;;;;;;5019241;28;20439;-79
2021/05/30 09:17:11;;;;;;;4.30;2.87;;;16.00;81.40;;;;;;5011659;28;20526;-77
2021/05/30 09:19:42;;;;;;;3.60;2.80;;;16.10;81.10;;;;;;5014362;28;20439;-79
2021/05/30 09:22:40;;;;;;;6.53;3.57;;;16.20;82.10;;;;;;5012961;28;20468;-80
2021/05/30 09:25:16;;;;;;;4.37;2.83;;;16.30;80.80;;;;;;5012288;28;20441;-79
2021/05/30 09:27:52;;;;;;;4.87;3.07;;;16.30;80.70;;;;;;5013718;28;20509;-78
2021/05/30 09:30:42;;;;;;;3.73;2.80;;;16.40;82.10;;;;;;5014461;28;20817;-78
2021/05/30 09:33:19;;;;;;;8.00;3.57;;;16.50;82.40;;;;;;5020336;28;20468;-78
2021/05/30 09:35:51;;;;;;;3.50;3.20;;;16.70;80.30;;;;;;5015200;28;20434;-77
2021/05/30 09:38:31;;;;;;;5.63;3.33;;;16.70;80.20;;;;;;5007611;28;20458;-78
2021/05/30 09:41:07;;;;;;;21.40;3.20;;;16.70;80.80;;;;;;5013263;28;20505;-79
2021/05/30 09:43:48;;;;;;;4.50;2.90;;;16.70;79.90;;;;;;5016569;28;20905;-77
2021/05/30 09:46:18;;;;;;;5.33;2.93;;;16.80;82.20;;;;;;5015481;28;20423;-77
2021/05/30 09:48:51;;;;;;;6.10;3.23;;;16.90;80.70;;;;;;5025104;28;20490;-78
2021/05/30 09:51:38;;;;;;;4.97;3.40;;;17.00;81.60;;;;;;5041362;28;20450;-78
2021/05/30 09:54:13;;;;;;;6.20;3.30;;;17.10;80.60;;;;;;5031488;28;20443;-77
2021/05/30 09:56:47;;;;;;;6.43;3.00;;;17.20;80.50;;;;;;5014725;28;20427;-78
2021/05/30 09:59:15;;;;;;;7.20;3.03;;;17.30;80.20;;;;;;5010051;28;20411;-78
2021/05/30 10:01:54;;;;;;;6.47;3.40;;;17.40;80.70;;;;;;5006280;28;20446;-77
2021/05/30 10:04:22;;;;;;;6.40;3.67;;;17.50;80.40;;;;;;5020654;28;20656;-78
2021/05/30 10:06:48;;;;;;;5.50;3.70;;;17.50;80.90;;;;;;4999656;28;20435;-77
2021/05/30 10:09:15;;;;;;;4.97;3.03;;;17.60;79.70;;;;;;5015010;28;20802;-77
2021/05/30 10:11:42;;;;;;;6.17;3.50;;;17.70;81.50;;;;;;5016394;28;20197;-80
2021/05/30 10:14:08;;;;;;;6.53;3.40;;;17.70;80.50;;;;;;5016960;28;20419;-78
2021/05/30 10:16:35;;;;;;;6.93;3.97;;;17.70;80.50;;;;;;5016233;28;20427;-79
2021/05/30 10:19:17;;;;;;;5.80;3.40;;;17.80;80.40;;;;;;5016983;28;20817;-80
2021/05/30 10:21:57;;;;;;;4.50;3.67;;;17.90;80.80;;;;;;5008641;28;20435;-78
2021/05/30 10:24:23;;;;;;;5.27;3.30;;;17.90;80.40;;;;;;5010629;28;20463;-78
2021/05/30 10:27:14;;;;;;;6.00;3.50;;;17.90;79.20;;;;;;5016464;28;20990;-78
2021/05/30 10:29:40;;;;;;;5.27;3.57;;;17.90;81.40;;;;;;5014324;28;20871;-78
2021/05/30 10:32:17;;;;;;;7.73;3.57;;;18.00;80.40;;;;;;5032023;28;20466;-78
2021/05/30 10:35:24;;;;;;;4.70;3.03;;;18.20;81.20;;;;;;5030282;28;20204;-79
2021/05/30 10:37:49;;;;;;;5.63;3.67;;;18.30;81.70;;;;;;5013188;28;20791;-78
2021/05/30 10:40:21;;;;;;;7.70;3.90;;;18.50;80.80;;;;;;5015493;28;20430;-78
2021/05/30 10:43:12;;;;;;;5.43;3.70;;;18.50;80.40;;;;;;5016285;28;20255;-80
2021/05/30 10:45:57;;;;;;;6.23;3.13;;;18.60;78.90;;;;;;5015138;28;20411;-80
2021/05/30 10:48:23;;;;;;;4.23;2.83;;;18.60;79.00;;;;;;5015605;28;20403;-80
2021/05/30 10:53:49;;;;;;;4.97;3.07;;;18.10;78.80;;;;;;5033671;28;20207;-77
2021/05/30 10:56:58;;;;;;;5.60;3.00;;;18.00;80.00;;;;;;5015962;28;20411;-77
2021/05/30 10:59:25;;;;;;;4.30;3.20;;;18.20;79.60;;;;;;5024194;28;20423;-77
2021/05/30 11:01:52;;;;;;;6.00;3.03;;;18.30;79.70;;;;;;5016383;28;20505;-79
2021/05/30 11:06:50;;;;;;;4.50;3.07;;;18.40;78.20;;;;;;5033029;28;20410;-78
2021/05/30 11:09:16;;;;;;;4.17;3.13;;;18.50;78.40;;;;;;5016960;28;20414;-80
2021/05/30 11:11:42;;;;;;;4.70;3.00;;;18.70;77.80;;;;;;5008222;28;20447;-79
2021/05/30 11:14:10;;;;;;;4.60;3.07;;;18.70;78.30;;;;;;5012871;28;20506;-78
2021/05/30 11:16:42;;;;;;;5.20;3.13;;;18.80;78.20;;;;;;5032646;28;20177;-77
2021/05/30 11:19:10;;;;;;;6.20;3.33;;;18.80;75.90;;;;;;5014335;28;20419;-78
2021/05/30 11:21:41;;;;;;;8.40;3.37;;;18.90;77.70;;;;;;5016156;28;20427;-80
2021/05/30 11:24:09;;;;;;;4.63;3.10;;;18.90;77.70;;;;;;5015410;28;20431;-78
2021/05/30 11:26:35;;;;;;;4.07;2.67;;;18.90;77.10;;;;;;5017131;28;20498;-79
2021/05/30 11:29:03;;;;;;;4.23;3.33;;;18.90;76.90;;;;;;5016812;28;20411;-78
2021/05/30 11:31:29;;;;;;;3.10;2.60;;;19.00;76.40;;;;;;5033327;28;20842;-78
2021/05/30 11:34:01;;;;;;;10.73;3.00;;;19.20;76.60;;;;;;5015939;28;20470;-78
2021/05/30 11:36:35;;;;;;;6.10;3.00;;;19.40;76.60;;;;;;5016805;28;20423;-79
2021/05/30 11:39:19;;;;;;;4.97;3.00;;;19.40;74.70;;;;;;5016994;28;20538;-80
2021/05/30 11:41:47;;;;;;;3.90;3.07;;;19.40;75.50;;;;;;5008864;28;20576;-78
2021/05/30 11:44:13;;;;;;;4.20;3.03;;;19.40;73.50;;;;;;5011455;28;20487;-78
2021/05/30 11:46:52;;;;;;;5.30;3.10;;;19.50;73.60;;;;;;5015774;28;20414;-78
2021/05/30 11:49:29;;;;;;;5.37;2.70;;;19.60;74.50;;;;;;5016491;28;20466;-79
2021/05/30 11:52:12;;;;;;;5.03;2.80;;;19.60;74.70;;;;;;5034832;28;20430;-80
2021/05/30 11:54:46;;;;;;;4.10;2.57;;;19.90;75.50;;;;;;5029454;28;20437;-77
2021/05/30 11:57:15;;;;;;;6.00;2.60;;;19.90;73.70;;;;;;4992365;23;20499;-79
2021/05/30 11:59:43;;;;;;;4.60;3.13;;;19.90;73.50;;;;;;4961619;28;20419;-79
2021/05/30 12:02:30;;;;;;;4.37;3.00;;;20.00;74.10;;;;;;4964003;28;20429;-79
2021/05/30 12:05:07;;;;;;;6.93;3.20;;;20.00;73.50;;;;;;4960967;28;20421;-83
2021/05/30 12:07:33;;;;;;;5.30;3.03;;;20.00;71.60;;;;;;4959640;28;20500;-81
2021/05/30 12:10:00;;;;;;;5.13;2.67;;;20.00;73.80;;;;;;4976402;28;20405;-80
2021/05/30 12:12:35;;;;;;;8.20;3.00;;;20.10;72.00;;;;;;4977219;28;20450;-81
2021/05/30 12:15:03;;;;;;;9.70;2.90;;;20.10;72.90;;;;;;4998371;28;20420;-79
2021/05/30 12:17:30;;;;;;;7.33;3.17;;;20.10;71.10;;;;;;5001360;28;20958;-79
2021/05/30 12:19:57;;;;;;;4.30;2.80;;;20.20;71.40;;;;;;4986373;28;20428;-78
2021/05/30 12:22:25;;;;;;;8.33;3.37;;;20.20;71.10;;;;;;4988393;28;20441;-80
2021/05/30 12:24:52;;;;;;;4.57;3.00;;;20.30;74.20;;;;;;4981736;28;20417;-82
2021/05/30 12:27:19;;;;;;;10.10;3.30;;;20.40;71.90;;;;;;4977476;28;20795;-80
2021/05/30 12:29:47;;;;;;;6.63;3.00;;;20.50;71.60;;;;;;4964360;28;20968;-79
2021/05/30 12:32:15;;;;;;;4.97;2.90;;;20.40;73.40;;;;;;4971671;28;20632;-80
2021/05/30 12:34:41;;;;;;;6.00;3.00;;;20.60;71.60;;;;;;4972292;28;20802;-79
2021/05/30 12:37:07;;;;;;;4.43;2.90;;;20.70;72.70;;;;;;4978419;28;20491;-80
2021/05/30 12:39:33;;;;;;;4.23;2.80;;;20.80;71.10;;;;;;4994891;28;20232;-80
2021/05/30 12:42:09;;;;;;;5.70;2.77;;;20.80;71.30;;;;;;5028414;23;20231;-81
2021/05/30 12:44:53;;;;;;;6.43;3.63;;;20.90;70.90;;;;;;4979342;28;20190;-78
2021/05/30 12:47:22;;;;;;;3.67;2.83;;;21.00;71.90;;;;;;4980981;28;20500;-82
2021/05/30 12:49:55;;;;;;;3.73;2.60;;;21.10;71.40;;;;;;4982348;28;20432;-80
2021/05/30 12:52:20;;;;;;;4.50;2.90;;;21.10;70.40;;;;;;5000847;28;20455;-80
2021/05/30 12:55:07;;;;;;;4.27;2.40;;;20.90;69.00;;;;;;5002956;28;20930;-81